Time;durP1;ratioP1;P1;durP2;ratioP2;P2;SDS_P1;SDS_P2;PMS_P1;PMS_P2;Temp;Humidity;BMP_temperature;BMP_pressure;BME280_temperature;BME280_humidity;BME280_pressure;Samples;Min_cycle;Max_cycle;Signal;HPM_P1;HPM_P2
2023/03/17 00:01:53;;;;;;;13.55;3.13;;;;;;;;;;5013803;28;20033;-76
2023/03/17 00:04:19;;;;;;;9.57;2.65;;;;;;;;;;5013647;28;20598;-76
2023/03/17 00:06:46;;;;;;;10.80;2.60;;;;;;;;;;5013814;28;20105;-75
2023/03/17 00:09:13;;;;;;;10.65;2.72;;;;;;;;;;5013659;28;20029;-75
2023/03/17 00:11:39;;;;;;;13.38;3.40;;;;;;;;;;5013523;28;20104;-75
2023/03/17 00:14:06;;;;;;;11.80;3.55;;;;;;;;;;5013307;28;20022;-75
2023/03/17 00:16:34;;;;;;;9.55;3.08;;;;;;;;;;5013572;28;20030;-73
2023/03/17 00:19:00;;;;;;;14.45;3.22;;;;;;;;;;5013198;28;20022;-75
2023/03/17 00:21:30;;;;;;;9.90;3.45;;;;;;;;;;5011533;28;20046;-75
2023/03/17 00:23:58;;;;;;;11.73;2.97;;;;;;;;;;5013273;28;20069;-75
2023/03/17 00:26:25;;;;;;;12.85;3.85;;;;;;;;;;5011899;28;20053;-75
2023/03/17 00:28:51;;;;;;;9.27;3.13;;;;;;;;;;5012948;28;20014;-74
2023/03/17 00:31:19;;;;;;;14.25;4.15;;;;;;;;;;5012264;28;20436;-74
2023/03/17 00:33:46;;;;;;;12.00;3.42;;;;;;;;;;5011748;28;20030;-74
2023/03/17 00:36:18;;;;;;;11.18;3.95;;;;;;;;;;5013036;28;20069;-75
2023/03/17 00:38:44;;;;;;;16.00;4.07;;;;;;;;;;5013045;28;20022;-75
2023/03/17 00:41:11;;;;;;;9.05;3.20;;;;;;;;;;5011607;28;20026;-74
2023/03/17 00:43:37;;;;;;;16.10;3.83;;;;;;;;;;5012732;28;20124;-74
2023/03/17 00:46:15;;;;;;;20.67;4.15;;;;;;;;;;5011442;28;20366;-74
2023/03/17 00:48:42;;;;;;;17.45;3.88;;;;;;;;;;5012833;28;20022;-76
2023/03/17 00:51:08;;;;;;;16.42;3.25;;;;;;;;;;5012731;28;20022;-74
2023/03/17 00:53:35;;;;;;;10.25;3.38;;;;;;;;;;5012547;28;20032;-75
2023/03/17 00:56:01;;;;;;;16.38;3.08;;;;;;;;;;5012722;28;20030;-75
2023/03/17 00:58:28;;;;;;;17.55;4.07;;;;;;;;;;5012640;28;20032;-76
2023/03/17 01:00:55;;;;;;;13.00;4.10;;;;;;;;;;5012660;28;20038;-77
2023/03/17 01:03:21;;;;;;;11.95;3.40;;;;;;;;;;5012316;28;20018;-75
2023/03/17 01:05:51;;;;;;;17.52;3.60;;;;;;;;;;5012273;28;20044;-73
2023/03/17 01:08:18;;;;;;;10.90;3.42;;;;;;;;;;5012422;28;20022;-74
2023/03/17 01:10:44;;;;;;;14.02;4.20;;;;;;;;;;5011200;28;20382;-75
2023/03/17 01:13:11;;;;;;;16.83;3.80;;;;;;;;;;5012339;28;20432;-75
2023/03/17 01:15:39;;;;;;;12.95;4.30;;;;;;;;;;5012099;28;20062;-75
2023/03/17 01:18:06;;;;;;;16.38;4.25;;;;;;;;;;5012195;28;20032;-76
2023/03/17 01:20:33;;;;;;;12.68;4.30;;;;;;;;;;5011969;28;20026;-75
2023/03/17 01:23:00;;;;;;;17.48;4.60;;;;;;;;;;5012023;28;20046;-75
2023/03/17 01:25:27;;;;;;;11.32;4.38;;;;;;;;;;5012116;28;20141;-76
2023/03/17 01:27:54;;;;;;;13.68;4.20;;;;;;;;;;5012012;28;20511;-77
2023/03/17 01:30:20;;;;;;;18.25;4.22;;;;;;;;;;5011898;28;20060;-76
2023/03/17 01:32:46;;;;;;;14.48;4.20;;;;;;;;;;5011791;28;20478;-75
2023/03/17 01:35:13;;;;;;;17.67;4.85;;;;;;;;;;5012089;28;20022;-77
2023/03/17 01:37:39;;;;;;;18.45;5.05;;;;;;;;;;5010697;28;20026;-77
2023/03/17 01:40:08;;;;;;;24.48;6.28;;;;;;;;;;5011948;28;20065;-78
2023/03/17 01:42:35;;;;;;;18.83;4.90;;;;;;;;;;5011314;28;20129;-78
2023/03/17 01:45:01;;;;;;;14.60;5.30;;;;;;;;;;5011678;28;20022;-78
2023/03/17 01:47:31;;;;;;;20.73;5.95;;;;;;;;;;5011915;28;20096;-77
2023/03/17 01:50:04;;;;;;;19.05;6.53;;;;;;;;;;5011769;28;20109;-78
2023/03/17 01:52:30;;;;;;;21.58;6.85;;;;;;;;;;5011617;28;20053;-79
2023/03/17 01:54:58;;;;;;;20.55;7.80;;;;;;;;;;5011743;28;20029;-76
2023/03/17 01:57:27;;;;;;;21.38;8.48;;;;;;;;;;5011686;28;20031;-76
2023/03/17 01:59:59;;;;;;;18.50;7.95;;;;;;;;;;5011590;28;20030;-74
2023/03/17 02:02:29;;;;;;;22.35;9.05;;;;;;;;;;5011427;28;20061;-74
2023/03/17 02:04:56;;;;;;;25.63;9.15;;;;;;;;;;5011590;28;20022;-73
2023/03/17 02:07:23;;;;;;;20.70;9.57;;;;;;;;;;5011398;28;20459;-75
2023/03/17 02:09:51;;;;;;;25.27;9.73;;;;;;;;;;5011689;28;20033;-74
2023/03/17 02:12:17;;;;;;;28.35;10.40;;;;;;;;;;5011441;28;20027;-73
2023/03/17 02:14:43;;;;;;;30.58;11.27;;;;;;;;;;5011478;28;20057;-75
2023/03/17 02:17:10;;;;;;;22.30;10.48;;;;;;;;;;5011570;28;20026;-74
2023/03/17 02:19:36;;;;;;;42.45;12.75;;;;;;;;;;5010106;28;20164;-73
2023/03/17 02:22:02;;;;;;;30.48;10.25;;;;;;;;;;5011304;28;20054;-74
2023/03/17 02:24:34;;;;;;;26.83;11.10;;;;;;;;;;5011350;28;20021;-73
2023/03/17 02:27:07;;;;;;;29.65;11.25;;;;;;;;;;5010045;28;20068;-74
2023/03/17 02:29:34;;;;;;;27.40;11.20;;;;;;;;;;5010251;28;20091;-74
2023/03/17 02:32:01;;;;;;;28.40;11.32;;;;;;;;;;5011305;28;20490;-75
2023/03/17 02:34:27;;;;;;;38.58;11.50;;;;;;;;;;5011359;28;20025;-74
2023/03/17 02:36:53;;;;;;;28.35;11.52;;;;;;;;;;5011164;28;20034;-75
2023/03/17 02:39:19;;;;;;;30.27;10.02;;;;;;;;;;5011120;28;20521;-75
2023/03/17 02:41:45;;;;;;;35.78;13.02;;;;;;;;;;5011360;28;20034;-76
2023/03/17 02:44:11;;;;;;;29.20;11.90;;;;;;;;;;5011300;28;20049;-75
2023/03/17 02:46:38;;;;;;;27.27;10.70;;;;;;;;;;5011082;28;20030;-75
2023/03/17 02:49:04;;;;;;;29.60;10.65;;;;;;;;;;5011197;28;20026;-76
2023/03/17 02:51:30;;;;;;;26.17;11.90;;;;;;;;;;5011176;28;20029;-76
2023/03/17 02:53:56;;;;;;;33.95;10.95;;;;;;;;;;5012087;28;20387;-76
2023/03/17 02:56:23;;;;;;;36.38;11.85;;;;;;;;;;5015133;28;20049;-77
2023/03/17 02:58:49;;;;;;;33.85;10.95;;;;;;;;;;5014823;28;20026;-77
2023/03/17 03:01:15;;;;;;;25.73;10.25;;;;;;;;;;5014717;28;20029;-75
2023/03/17 03:03:41;;;;;;;28.15;10.98;;;;;;;;;;5014728;28;20041;-75
2023/03/17 03:06:08;;;;;;;29.05;10.73;;;;;;;;;;5014579;28;20021;-76
2023/03/17 03:08:34;;;;;;;30.92;10.02;;;;;;;;;;5014824;28;20022;-77
2023/03/17 03:11:01;;;;;;;30.83;9.38;;;;;;;;;;5014880;28;20069;-76
2023/03/17 03:13:27;;;;;;;35.90;10.18;;;;;;;;;;5014652;28;20552;-77
2023/03/17 03:15:53;;;;;;;29.75;9.95;;;;;;;;;;5014738;28;20040;-79
2023/03/17 03:18:19;;;;;;;31.17;10.13;;;;;;;;;;5014301;28;20033;-76
2023/03/17 03:20:46;;;;;;;38.60;10.50;;;;;;;;;;5014107;28;20112;-77
2023/03/17 03:23:12;;;;;;;30.38;10.80;;;;;;;;;;5014306;28;20042;-77
2023/03/17 03:25:38;;;;;;;30.42;11.27;;;;;;;;;;5014426;28;20161;-78
2023/03/17 03:28:08;;;;;;;33.33;10.57;;;;;;;;;;5014462;28;20364;-78
2023/03/17 03:30:35;;;;;;;42.50;11.85;;;;;;;;;;5014536;28;20489;-77
2023/03/17 03:33:01;;;;;;;33.55;11.05;;;;;;;;;;5014417;28;20037;-77
2023/03/17 03:35:28;;;;;;;40.03;10.18;;;;;;;;;;5014456;28;20052;-77
2023/03/17 03:37:55;;;;;;;37.80;9.05;;;;;;;;;;5014073;28;20025;-77
2023/03/17 03:40:21;;;;;;;38.25;10.02;;;;;;;;;;5014113;28;20030;-78
2023/03/17 03:42:47;;;;;;;33.72;9.25;;;;;;;;;;5013980;28;20396;-77
2023/03/17 03:45:13;;;;;;;30.92;8.27;;;;;;;;;;5014117;28;20486;-78
2023/03/17 03:47:39;;;;;;;30.48;9.30;;;;;;;;;;5013983;28;20030;-79
2023/03/17 03:50:06;;;;;;;34.22;9.13;;;;;;;;;;5013800;28;20030;-78
2023/03/17 03:52:32;;;;;;;41.92;10.20;;;;;;;;;;5013898;28;20538;-78
2023/03/17 03:54:58;;;;;;;40.85;9.75;;;;;;;;;;5013824;28;20494;-78
2023/03/17 03:57:24;;;;;;;40.00;9.85;;;;;;;;;;5014588;28;20030;-79
2023/03/17 03:59:50;;;;;;;47.78;11.23;;;;;;;;;;5014838;28;20041;-78
2023/03/17 04:02:17;;;;;;;45.83;11.02;;;;;;;;;;5014067;28;20164;-78
2023/03/17 04:04:43;;;;;;;44.60;11.05;;;;;;;;;;5012541;28;20129;-78
2023/03/17 04:07:09;;;;;;;38.88;10.85;;;;;;;;;;5014607;28;20111;-78
2023/03/17 04:09:36;;;;;;;44.78;12.32;;;;;;;;;;5014652;28;20022;-80
2023/03/17 04:12:02;;;;;;;32.97;11.98;;;;;;;;;;5016833;28;20030;-78
2023/03/17 04:14:28;;;;;;;35.80;12.73;;;;;;;;;;5018775;28;20052;-77
2023/03/17 04:16:55;;;;;;;47.95;15.88;;;;;;;;;;5019091;28;20026;-77
2023/03/17 04:19:22;;;;;;;42.30;17.00;;;;;;;;;;5017278;28;20056;-77
2023/03/17 04:21:48;;;;;;;48.00;17.38;;;;;;;;;;5017444;28;20053;-78
2023/03/17 04:24:14;;;;;;;45.63;15.90;;;;;;;;;;5018228;28;20086;-79
2023/03/17 04:26:41;;;;;;;41.83;15.13;;;;;;;;;;5016307;28;20026;-78
2023/03/17 04:29:07;;;;;;;36.90;15.23;;;;;;;;;;5016591;28;20110;-77
2023/03/17 04:31:34;;;;;;;35.17;15.52;;;;;;;;;;5014788;28;20057;-79
2023/03/17 04:34:01;;;;;;;38.92;15.90;;;;;;;;;;5015243;28;20055;-78
2023/03/17 04:36:27;;;;;;;41.00;14.70;;;;;;;;;;5014731;28;20033;-78
2023/03/17 04:38:53;;;;;;;31.30;13.93;;;;;;;;;;5014594;28;20376;-78
2023/03/17 04:41:20;;;;;;;32.80;14.15;;;;;;;;;;5014564;28;20458;-78
2023/03/17 04:43:46;;;;;;;41.17;14.30;;;;;;;;;;5016643;28;20029;-78
2023/03/17 04:46:12;;;;;;;37.05;13.77;;;;;;;;;;5012571;28;20030;-78
2023/03/17 04:48:39;;;;;;;39.40;14.65;;;;;;;;;;5013398;28;20022;-77
2023/03/17 04:51:05;;;;;;;37.92;13.18;;;;;;;;;;5013351;28;20026;-78
2023/03/17 04:53:31;;;;;;;29.27;12.90;;;;;;;;;;5013381;28;20029;-79
2023/03/17 04:55:57;;;;;;;42.90;14.18;;;;;;;;;;5012961;28;20104;-78
2023/03/17 04:58:24;;;;;;;34.78;13.75;;;;;;;;;;5012823;28;20030;-78
2023/03/17 05:00:51;;;;;;;42.45;14.68;;;;;;;;;;5012737;28;20518;-78
2023/03/17 05:03:17;;;;;;;34.40;12.15;;;;;;;;;;5011357;28;20508;-79
2023/03/17 05:05:43;;;;;;;41.58;12.27;;;;;;;;;;5012799;28;20030;-78
2023/03/17 05:08:09;;;;;;;34.13;11.65;;;;;;;;;;5012451;28;20026;-78
2023/03/17 05:10:35;;;;;;;35.53;11.52;;;;;;;;;;5011322;28;20429;-78
2023/03/17 05:13:01;;;;;;;36.08;12.18;;;;;;;;;;5012374;28;20468;-78
2023/03/17 05:15:28;;;;;;;35.70;12.85;;;;;;;;;;5012549;28;20022;-75
2023/03/17 05:17:54;;;;;;;37.35;12.38;;;;;;;;;;5012046;28;20110;-74
2023/03/17 05:20:20;;;;;;;40.50;11.20;;;;;;;;;;5011998;28;20053;-73
2023/03/17 05:22:46;;;;;;;34.38;13.25;;;;;;;;;;5011803;28;20499;-74
2023/03/17 05:25:12;;;;;;;28.83;13.93;;;;;;;;;;5012106;28;20022;-73
2023/03/17 05:27:39;;;;;;;31.35;14.38;;;;;;;;;;5010757;28;20030;-74
2023/03/17 05:30:05;;;;;;;46.20;16.52;;;;;;;;;;5012033;28;20072;-73
2023/03/17 05:32:31;;;;;;;44.53;15.82;;;;;;;;;;5012200;28;20036;-72
2023/03/17 05:34:57;;;;;;;44.35;16.25;;;;;;;;;;5012013;28;20037;-73
2023/03/17 05:37:24;;;;;;;42.90;15.63;;;;;;;;;;5011891;28;20032;-73
2023/03/17 05:39:52;;;;;;;54.85;15.02;;;;;;;;;;5011870;28;20109;-70
2023/03/17 05:42:18;;;;;;;51.53;15.73;;;;;;;;;;5011840;28;20040;-73
2023/03/17 05:44:44;;;;;;;60.38;17.08;;;;;;;;;;5011823;28;20026;-72
2023/03/17 05:47:10;;;;;;;48.10;14.55;;;;;;;;;;5011245;28;20104;-72
2023/03/17 05:49:36;;;;;;;58.22;14.80;;;;;;;;;;5011530;28;20045;-73
2023/03/17 05:52:03;;;;;;;57.30;16.45;;;;;;;;;;5011613;28;20022;-73
2023/03/17 05:54:29;;;;;;;63.13;16.27;;;;;;;;;;5011530;28;20529;-73
2023/03/17 05:56:55;;;;;;;48.50;14.27;;;;;;;;;;5011559;28;20418;-73
2023/03/17 05:59:21;;;;;;;49.33;13.38;;;;;;;;;;5011662;28;20017;-73
2023/03/17 06:01:47;;;;;;;47.95;13.45;;;;;;;;;;5010565;28;20181;-73
2023/03/17 06:04:14;;;;;;;57.83;17.40;;;;;;;;;;5011586;28;20022;-74
2023/03/17 06:06:40;;;;;;;71.72;18.60;;;;;;;;;;5017137;28;20029;-71
2023/03/17 06:09:07;;;;;;;60.13;17.05;;;;;;;;;;5031030;28;20032;-72
2023/03/17 06:11:33;;;;;;;45.17;14.20;;;;;;;;;;5016761;28;20029;-72
2023/03/17 06:13:59;;;;;;;35.00;14.07;;;;;;;;;;5011306;28;20029;-71
2023/03/17 06:16:27;;;;;;;36.20;12.20;;;;;;;;;;5011343;28;20082;-70
2023/03/17 06:18:53;;;;;;;56.05;12.73;;;;;;;;;;5011296;28;20544;-71
2023/03/17 06:21:19;;;;;;;78.13;12.35;;;;;;;;;;5011223;28;20072;-72
2023/03/17 06:23:45;;;;;;;60.03;10.55;;;;;;;;;;5010845;28;20103;-72
2023/03/17 06:26:12;;;;;;;42.67;10.45;;;;;;;;;;5009968;28;20033;-72
2023/03/17 06:28:38;;;;;;;47.33;10.38;;;;;;;;;;5011524;28;20026;-68
2023/03/17 06:31:04;;;;;;;65.90;10.25;;;;;;;;;;5015041;28;20041;-67
2023/03/17 06:33:30;;;;;;;28.60;8.90;;;;;;;;;;5015160;28;20049;-68
2023/03/17 06:35:57;;;;;;;42.65;10.48;;;;;;;;;;5015099;28;20088;-68
2023/03/17 06:38:24;;;;;;;38.33;8.68;;;;;;;;;;5015074;28;20045;-68
2023/03/17 06:40:50;;;;;;;31.38;9.27;;;;;;;;;;5013882;28;20049;-68
2023/03/17 06:43:18;;;;;;;40.17;8.75;;;;;;;;;;5014984;28;20022;-68
2023/03/17 06:45:44;;;;;;;36.88;8.38;;;;;;;;;;5014249;28;20032;-68
2023/03/17 06:48:11;;;;;;;32.63;8.15;;;;;;;;;;5014983;28;20072;-68
2023/03/17 06:50:37;;;;;;;27.98;7.13;;;;;;;;;;5014855;28;20022;-68
2023/03/17 06:53:03;;;;;;;21.25;6.82;;;;;;;;;;5014866;28;20104;-68
2023/03/17 06:55:30;;;;;;;21.25;6.88;;;;;;;;;;5014569;28;20025;-69
2023/03/17 06:57:57;;;;;;;18.67;6.63;;;;;;;;;;5013924;28;20026;-67
2023/03/17 07:00:23;;;;;;;17.20;6.55;;;;;;;;;;5013965;28;20041;-68
2023/03/17 07:02:50;;;;;;;18.00;5.95;;;;;;;;;;5014411;28;20128;-67
2023/03/17 07:05:16;;;;;;;17.90;6.15;;;;;;;;;;5014093;28;20054;-69
2023/03/17 07:07:42;;;;;;;19.60;6.28;;;;;;;;;;5014564;28;20060;-68
2023/03/17 07:10:16;;;;;;;23.33;5.85;;;;;;;;;;5013696;28;20021;-68
2023/03/17 07:12:42;;;;;;;22.40;5.53;;;;;;;;;;5013561;28;20021;-68
2023/03/17 07:15:11;;;;;;;14.43;5.00;;;;;;;;;;5012867;28;20383;-68
2023/03/17 07:17:37;;;;;;;18.42;5.40;;;;;;;;;;5012427;28;20601;-67
2023/03/17 07:20:05;;;;;;;17.92;5.65;;;;;;;;;;5013378;28;20030;-67
2023/03/17 07:22:31;;;;;;;16.50;5.05;;;;;;;;;;5010969;28;20077;-64
2023/03/17 07:24:58;;;;;;;18.50;5.57;;;;;;;;;;5011309;28;20040;-64
2023/03/17 07:27:25;;;;;;;18.10;4.85;;;;;;;;;;5011636;28;20050;-64
2023/03/17 07:29:51;;;;;;;14.50;4.20;;;;;;;;;;5013094;28;20034;-65
2023/03/17 07:32:18;;;;;;;13.35;3.70;;;;;;;;;;5012928;28;20030;-64
2023/03/17 07:34:44;;;;;;;10.73;4.22;;;;;;;;;;5012922;28;20513;-64
2023/03/17 07:37:11;;;;;;;13.88;3.53;;;;;;;;;;5012761;28;20061;-64
2023/03/17 07:39:38;;;;;;;11.75;3.97;;;;;;;;;;5012262;28;20060;-63
2023/03/17 07:42:04;;;;;;;10.60;4.13;;;;;;;;;;5012793;28;20063;-65
2023/03/17 07:44:31;;;;;;;13.65;3.75;;;;;;;;;;5011795;28;20325;-64
2023/03/17 07:46:57;;;;;;;8.98;3.15;;;;;;;;;;5006382;28;20097;-67
2023/03/17 07:49:23;;;;;;;19.98;3.67;;;;;;;;;;4991053;28;20526;-66
2023/03/17 07:51:49;;;;;;;10.43;3.92;;;;;;;;;;4991177;28;20439;-66
2023/03/17 07:54:16;;;;;;;12.60;4.00;;;;;;;;;;5008163;28;20122;-67
2023/03/17 07:56:42;;;;;;;15.88;4.53;;;;;;;;;;5005944;28;20019;-66
2023/03/17 07:59:08;;;;;;;11.80;5.00;;;;;;;;;;4992687;28;20026;-66
2023/03/17 08:01:34;;;;;;;16.13;5.95;;;;;;;;;;5008131;28;20041;-67
2023/03/17 08:04:00;;;;;;;9.02;6.00;;;;;;;;;;5011907;28;20036;-65
2023/03/17 08:06:26;;;;;;;11.88;6.03;;;;;;;;;;5011359;28;20064;-66
2023/03/17 08:08:53;;;;;;;15.40;6.30;;;;;;;;;;5012312;28;20379;-66
2023/03/17 08:11:20;;;;;;;12.73;6.68;;;;;;;;;;5011633;28;20026;-66
2023/03/17 08:13:47;;;;;;;13.43;6.55;;;;;;;;;;5011213;28;20026;-65
2023/03/17 08:16:13;;;;;;;17.75;7.85;;;;;;;;;;5011751;28;20034;-66
2023/03/17 08:18:39;;;;;;;13.70;7.72;;;;;;;;;;5009141;28;20069;-67
2023/03/17 08:21:05;;;;;;;10.45;6.20;;;;;;;;;;5027030;28;20033;-66
2023/03/17 08:23:32;;;;;;;9.00;5.50;;;;;;;;;;4970549;28;1225118;-66
2023/03/17 08:26:02;;;;;;;11.50;6.05;;;;;;;;;;5013203;28;20034;-66
2023/03/17 08:28:28;;;;;;;13.48;5.70;;;;;;;;;;5013135;28;20037;-66
2023/03/17 08:30:54;;;;;;;10.85;5.05;;;;;;;;;;5013028;28;20060;-66
2023/03/17 08:33:21;;;;;;;15.20;5.28;;;;;;;;;;5012891;28;20096;-67
2023/03/17 08:35:47;;;;;;;13.55;4.63;;;;;;;;;;5013176;28;20501;-66
2023/03/17 08:38:13;;;;;;;11.65;4.53;;;;;;;;;;5012821;28;20114;-65
2023/03/17 08:40:40;;;;;;;13.43;4.95;;;;;;;;;;5012830;28;20030;-65
2023/03/17 08:43:06;;;;;;;9.50;4.80;;;;;;;;;;5012948;28;20034;-66
2023/03/17 08:45:32;;;;;;;13.80;5.15;;;;;;;;;;5012407;28;20109;-66
2023/03/17 08:47:59;;;;;;;10.90;4.50;;;;;;;;;;5012726;28;20034;-66
2023/03/17 08:50:25;;;;;;;16.70;4.78;;;;;;;;;;5012680;28;20029;-67
2023/03/17 08:52:51;;;;;;;9.77;5.07;;;;;;;;;;5011815;28;20517;-65
2023/03/17 08:55:18;;;;;;;16.88;5.22;;;;;;;;;;5012440;28;20022;-66
2023/03/17 08:57:44;;;;;;;13.40;4.20;;;;;;;;;;5012432;28;20029;-66
2023/03/17 09:00:12;;;;;;;16.75;4.88;;;;;;;;;;5012357;28;20148;-66
2023/03/17 09:02:39;;;;;;;10.18;4.28;;;;;;;;;;5012215;28;20483;-65
2023/03/17 09:05:06;;;;;;;10.07;4.43;;;;;;;;;;5012309;28;20028;-66
2023/03/17 09:07:32;;;;;;;8.45;3.85;;;;;;;;;;5012616;28;20088;-66
2023/03/17 09:10:04;;;;;;;10.40;4.75;;;;;;;;;;5012245;28;20029;-66
2023/03/17 09:12:30;;;;;;;8.82;4.22;;;;;;;;;;5012272;28;20028;-67
2023/03/17 09:14:56;;;;;;;10.77;4.10;;;;;;;;;;5012183;28;20518;-67
2023/03/17 09:17:22;;;;;;;12.15;4.78;;;;;;;;;;5012449;28;20029;-67
2023/03/17 09:19:49;;;;;;;13.50;5.43;;;;;;;;;;5011977;28;20033;-66
2023/03/17 09:22:17;;;;;;;12.15;6.00;;;;;;;;;;5011847;28;20443;-67
2023/03/17 09:24:43;;;;;;;19.95;7.20;;;;;;;;;;5012152;28;20044;-67
2023/03/17 09:27:10;;;;;;;20.05;5.90;;;;;;;;;;5012048;28;20018;-67
2023/03/17 09:29:36;;;;;;;21.98;7.38;;;;;;;;;;5011591;28;20018;-66
2023/03/17 09:32:02;;;;;;;12.93;5.90;;;;;;;;;;5011958;28;20033;-66
2023/03/17 09:34:28;;;;;;;12.02;5.90;;;;;;;;;;5011927;28;20105;-65
2023/03/17 09:36:54;;;;;;;12.50;6.20;;;;;;;;;;5011762;28;20026;-65
2023/03/17 09:39:21;;;;;;;17.20;6.35;;;;;;;;;;5011811;28;20030;-65
2023/03/17 09:42:06;;;;;;;25.45;6.50;;;;;;;;;;5011604;28;20486;-64
2023/03/17 09:44:52;;;;;;;22.90;5.70;;;;;;;;;;5011615;28;20083;-65
2023/03/17 09:47:30;;;;;;;12.82;6.03;;;;;;;;;;5011886;28;20339;-65
2023/03/17 09:50:01;;;;;;;14.77;5.93;;;;;;;;;;5009771;28;20045;-64
2023/03/17 09:52:28;;;;;;;15.90;5.93;;;;;;;;;;5010977;28;20034;-66
2023/03/17 09:54:55;;;;;;;11.43;5.47;;;;;;;;;;5010826;28;20430;-65
2023/03/17 09:57:24;;;;;;;13.55;6.03;;;;;;;;;;5010072;28;20030;-65
2023/03/17 09:59:57;;;;;;;15.35;6.07;;;;;;;;;;5010890;28;20467;-63
2023/03/17 10:02:23;;;;;;;17.10;6.10;;;;;;;;;;5011404;28;20128;-66
2023/03/17 10:04:49;;;;;;;21.05;6.15;;;;;;;;;;5011540;28;20049;-65
2023/03/17 10:07:19;;;;;;;13.30;5.43;;;;;;;;;;5010337;28;20048;-66
2023/03/17 10:09:48;;;;;;;18.77;5.85;;;;;;;;;;5010619;28;20029;-66
2023/03/17 10:12:23;;;;;;;11.95;6.18;;;;;;;;;;5008459;28;20026;-66
2023/03/17 10:14:56;;;;;;;19.48;7.28;;;;;;;;;;5011339;28;20022;-66
2023/03/17 10:17:27;;;;;;;12.40;5.68;;;;;;;;;;5010363;28;20091;-66
2023/03/17 10:20:10;;;;;;;18.27;6.85;;;;;;;;;;5011843;28;20075;-66
2023/03/17 10:22:42;;;;;;;13.43;5.43;;;;;;;;;;5007745;28;20137;-66
2023/03/17 10:25:14;;;;;;;14.75;5.70;;;;;;;;;;5016369;28;20032;-66
2023/03/17 10:27:40;;;;;;;15.55;6.97;;;;;;;;;;5024591;28;20060;-66
2023/03/17 10:30:20;;;;;;;21.42;5.63;;;;;;;;;;5013804;28;20386;-66
2023/03/17 10:32:47;;;;;;;18.83;5.40;;;;;;;;;;5013270;28;20108;-66
2023/03/17 10:35:14;;;;;;;13.60;5.30;;;;;;;;;;5012913;28;20030;-67
2023/03/17 10:37:41;;;;;;;18.90;6.00;;;;;;;;;;5027373;28;20425;-66
2023/03/17 10:40:09;;;;;;;16.70;5.82;;;;;;;;;;5015019;28;20018;-66
2023/03/17 10:42:44;;;;;;;13.52;6.00;;;;;;;;;;5016376;28;20499;-66
2023/03/17 10:45:29;;;;;;;12.77;5.55;;;;;;;;;;5016030;28;20022;-66
2023/03/17 10:47:56;;;;;;;16.33;6.80;;;;;;;;;;5011033;28;20026;-65
2023/03/17 10:50:23;;;;;;;19.05;6.15;;;;;;;;;;5008626;28;20018;-66
2023/03/17 10:52:59;;;;;;;15.27;6.25;;;;;;;;;;5010744;28;20029;-65
2023/03/17 10:55:32;;;;;;;15.48;6.72;;;;;;;;;;5010253;28;20048;-65
2023/03/17 10:58:02;;;;;;;19.75;5.97;;;;;;;;;;4991290;28;20490;-65
2023/03/17 11:00:32;;;;;;;15.10;5.95;;;;;;;;;;4991121;28;20386;-64
2023/03/17 11:02:59;;;;;;;13.65;5.63;;;;;;;;;;4999567;28;20479;-63
2023/03/17 11:05:27;;;;;;;17.45;6.07;;;;;;;;;;5007204;28;20058;-64
2023/03/17 11:07:58;;;;;;;20.42;6.47;;;;;;;;;;5010768;28;20088;-65
2023/03/17 11:10:26;;;;;;;13.98;6.80;;;;;;;;;;5010889;28;20054;-64
2023/03/17 11:12:59;;;;;;;13.23;6.20;;;;;;;;;;5008118;28;20025;-64
2023/03/17 11:15:28;;;;;;;17.40;6.70;;;;;;;;;;5012306;28;20522;-65
2023/03/17 11:17:57;;;;;;;19.10;6.70;;;;;;;;;;5010909;28;20065;-65
2023/03/17 11:20:42;;;;;;;18.45;6.65;;;;;;;;;;5011975;28;20025;-65
2023/03/17 11:23:14;;;;;;;20.60;7.43;;;;;;;;;;5025057;28;20065;-65
2023/03/17 11:25:42;;;;;;;18.92;7.72;;;;;;;;;;5014425;28;20563;-64
2023/03/17 11:28:40;;;;;;;19.88;7.97;;;;;;;;;;5014204;28;20224;-64
2023/03/17 11:31:11;;;;;;;18.92;8.50;;;;;;;;;;4995401;28;20044;-65
2023/03/17 11:33:46;;;;;;;16.17;7.75;;;;;;;;;;5012668;28;20109;-65
2023/03/17 11:36:32;;;;;;;16.48;7.47;;;;;;;;;;5013463;28;20026;-64
2023/03/17 11:39:10;;;;;;;16.63;7.63;;;;;;;;;;5014140;28;20061;-65
2023/03/17 11:41:43;;;;;;;21.08;6.72;;;;;;;;;;5014056;28;20390;-65
2023/03/17 11:44:18;;;;;;;14.15;7.03;;;;;;;;;;5013988;28;20394;-65
2023/03/17 11:46:50;;;;;;;27.83;7.72;;;;;;;;;;5012987;28;20168;-64
2023/03/17 11:49:16;;;;;;;;;;;;;;;;;;5014264;28;20032;-66
2023/03/17 11:51:45;;;;;;;16.27;8.43;;;;;;;;;;5013841;28;19905;-67
2023/03/17 11:54:34;;;;;;;20.92;8.45;;;;;;;;;;5013866;28;20029;-66
2023/03/17 11:57:03;;;;;;;19.02;8.13;;;;;;;;;;5015730;28;20046;-66
2023/03/17 11:59:38;;;;;;;19.73;7.55;;;;;;;;;;5013584;28;20032;-65
2023/03/17 12:02:07;;;;;;;19.35;8.35;;;;;;;;;;5013893;28;20034;-67
2023/03/17 12:04:40;;;;;;;19.27;8.20;;;;;;;;;;5012835;28;20478;-66
2023/03/17 12:07:19;;;;;;;20.42;9.02;;;;;;;;;;5013628;28;20541;-66
2023/03/17 12:09:48;;;;;;;12.90;7.50;;;;;;;;;;5013414;28;20033;-65
2023/03/17 12:12:15;;;;;;;13.77;7.70;;;;;;;;;;5013447;28;20112;-67
2023/03/17 12:14:45;;;;;;;20.33;8.85;;;;;;;;;;5013494;28;20069;-66
2023/03/17 12:17:11;;;;;;;18.27;8.88;;;;;;;;;;5013485;28;20025;-65
2023/03/17 12:19:41;;;;;;;18.85;8.13;;;;;;;;;;5005137;28;20030;-65
2023/03/17 12:22:28;;;;;;;20.42;8.32;;;;;;;;;;4993548;28;20057;-66
2023/03/17 12:25:18;;;;;;;24.27;9.52;;;;;;;;;;4993421;28;20360;-66
2023/03/17 12:27:47;;;;;;;26.98;9.02;;;;;;;;;;4994212;28;20125;-64
2023/03/17 12:30:34;;;;;;;15.50;7.68;;;;;;;;;;4993325;28;20101;-64
2023/03/17 12:33:00;;;;;;;18.67;7.82;;;;;;;;;;4993872;28;20061;-65
2023/03/17 12:35:30;;;;;;;19.05;7.95;;;;;;;;;;4993087;28;20026;-65
2023/03/17 12:38:20;;;;;;;23.27;7.90;;;;;;;;;;4993405;28;20538;-64
2023/03/17 12:41:01;;;;;;;16.08;8.13;;;;;;;;;;5000933;28;20092;-65
2023/03/17 12:43:36;;;;;;;19.05;9.77;;;;;;;;;;4993440;28;20281;-65
2023/03/17 12:46:21;;;;;;;17.17;8.88;;;;;;;;;;4993201;28;20026;-66
2023/03/17 12:48:50;;;;;;;19.83;8.98;;;;;;;;;;5004324;28;20025;-67
2023/03/17 12:51:51;;;;;;;22.08;8.88;;;;;;;;;;5001723;28;20431;-66
2023/03/17 12:54:20;;;;;;;20.65;7.97;;;;;;;;;;4998714;28;20033;-64
2023/03/17 12:56:47;;;;;;;20.83;9.07;;;;;;;;;;5004866;28;20037;-66
2023/03/17 12:59:16;;;;;;;24.48;10.02;;;;;;;;;;5010081;28;20033;-66
2023/03/17 13:01:44;;;;;;;27.00;10.80;;;;;;;;;;5011739;28;20045;-66
2023/03/17 13:04:23;;;;;;;27.27;11.70;;;;;;;;;;5012480;28;20030;-66
2023/03/17 13:07:08;;;;;;;25.90;11.35;;;;;;;;;;5004416;28;20037;-66
2023/03/17 13:09:41;;;;;;;23.23;11.25;;;;;;;;;;4992795;28;20056;-66
2023/03/17 13:12:27;;;;;;;27.38;11.32;;;;;;;;;;5006328;28;20030;-65
2023/03/17 13:14:54;;;;;;;28.08;10.63;;;;;;;;;;5011540;28;20034;-65
2023/03/17 13:17:24;;;;;;;25.08;10.10;;;;;;;;;;4998035;28;21140;-66
2023/03/17 13:20:10;;;;;;;25.55;11.57;;;;;;;;;;5010412;28;20745;-66
2023/03/17 13:22:38;;;;;;;27.17;11.57;;;;;;;;;;5010771;28;20414;-66
2023/03/17 13:25:22;;;;;;;22.20;10.75;;;;;;;;;;5011381;28;20418;-66
2023/03/17 13:27:49;;;;;;;24.90;9.15;;;;;;;;;;5012138;28;20034;-66
2023/03/17 13:30:21;;;;;;;30.25;10.00;;;;;;;;;;5010838;28;20045;-67
2023/03/17 13:32:58;;;;;;;24.55;9.25;;;;;;;;;;5010739;28;20030;-67
2023/03/17 13:35:37;;;;;;;19.23;9.20;;;;;;;;;;5011345;28;20045;-67
2023/03/17 13:38:10;;;;;;;23.38;10.00;;;;;;;;;;5008642;28;20627;-68
2023/03/17 13:40:48;;;;;;;21.35;9.23;;;;;;;;;;5004811;28;20119;-66
2023/03/17 13:43:17;;;;;;;26.25;10.68;;;;;;;;;;5005687;28;20066;-67
2023/03/17 13:45:46;;;;;;;21.90;10.27;;;;;;;;;;4997062;28;20140;-66
2023/03/17 13:48:33;;;;;;;23.33;10.20;;;;;;;;;;5010085;28;20038;-67
2023/03/17 13:51:11;;;;;;;27.00;11.60;;;;;;;;;;5002950;28;20033;-69
2023/03/17 13:54:00;;;;;;;29.65;12.40;;;;;;;;;;4994821;28;20030;-68
2023/03/17 13:56:45;;;;;;;22.80;11.70;;;;;;;;;;5002500;28;20041;-68
2023/03/17 13:59:15;;;;;;;18.13;7.70;;;;;;;;;;5011692;28;20083;-68
2023/03/17 14:01:41;;;;;;;13.27;5.93;;;;;;;;;;5009225;28;20037;-69
2023/03/17 14:04:15;;;;;;;10.77;4.70;;;;;;;;;;5006554;28;20117;-69
2023/03/17 14:06:41;;;;;;;10.10;4.22;;;;;;;;;;5010789;28;20025;-69
2023/03/17 14:09:10;;;;;;;9.18;4.43;;;;;;;;;;5010966;28;20041;-72
2023/03/17 14:11:41;;;;;;;8.48;4.28;;;;;;;;;;5011591;28;20026;-72
2023/03/17 14:14:07;;;;;;;13.82;4.90;;;;;;;;;;5011436;28;20513;-72
2023/03/17 14:16:42;;;;;;;10.77;4.20;;;;;;;;;;5011328;28;20034;-73
2023/03/17 14:19:26;;;;;;;11.10;3.92;;;;;;;;;;5010329;28;20029;-73
2023/03/17 14:21:52;;;;;;;10.70;4.40;;;;;;;;;;5011323;28;20449;-73
2023/03/17 14:24:19;;;;;;;8.80;3.50;;;;;;;;;;5011356;28;20048;-74
2023/03/17 14:26:47;;;;;;;8.95;3.90;;;;;;;;;;5010433;28;20034;-74
2023/03/17 14:29:14;;;;;;;10.25;3.75;;;;;;;;;;5011127;28;20491;-74
2023/03/17 14:31:41;;;;;;;10.50;4.80;;;;;;;;;;5011240;28;20084;-73
2023/03/17 14:34:20;;;;;;;13.48;4.07;;;;;;;;;;5010138;28;20026;-76
2023/03/17 14:36:46;;;;;;;12.00;3.95;;;;;;;;;;5009963;28;20413;-77